Stephens, Missouri
Current Conditions -  °F | °C
As of 8:14 AM on Friday 24 Oct 2014 (Local Time) from KCOU Reporting Station
Haze Haze  
Wind Chill: 56°   Ceiling: 800
Heat Index: 56°   Visibility: 2mi
Dew Point: 55°   Wind: 3mph
Humidity: 97%   Direction: 180°S
Pressure: 30.11"   Gusts: NA
Location:  39.0235°N, 92.2896°W
Report Text: KCOU 241314Z 18003KT 2SM BR OVC008 13/13 A3011 RMK AO2 CIG 007V011 T01330128
Loading
Personal Weather Stations






























Interactive Weather Map
Tropical Storm Tracking
New forecast layout! Learn more

10-Day Weather Forecast

Advertisements
Track Severe Weather on mobile